Skip Navigation Links weather.gov 
NOAA logo-Select to go to the NOAA homepage NDBC Title GraphicClick to go to NDBC home page   Select to go to the NWS homepage
Home About Us Contact Us
 
 
    
    Station List

 Data Access
    Mobile Access
    Classic Maps
         Recent
         DART®
    Obs Search
    Ship Obs Report
    BuoyCAMs
    TAO
    DODS
    OceanSITES
    HF Radar
    OSMC
    Dial-A-Buoy
    RSS Feeds Image indicating link to RSS feed access page
    Web Widget
    Email Access
    Web Data Guide
    Maintenance Schedule
    Station Status Report

 Program Info
    TAO
    DART®
    IOOS®

 Publications
    NDBC PEA
    NDBC FONSI
    NDBC DQC Handbook

 FAQ
 Visitor Information
 
USA.gov is the U.S. government's official web portal to all federal, state and local government web resources and services.

Station MHRN6 - 8519532 - Mariners Harbor, NY Image indicating link to RSS feed of recent meteorological observations for station MHRN6

Owned and maintained by NOAA's National Ocean Service
C-MAN Station
40.641 N 74.162 W (40°38'26" N 74°9'44" W)

Site elevation: 2.6 m above mean sea level
Anemometer height: 46 m above site elevation

Latest NWS Marine Forecast

Search And Rescue (SAR) Data

Meteorological Observations from Nearby Stations and Ships Image indicating link to RSS feed of recent meteorological observations near station MHRN6

Regional HF Radar Surface Current Observations

Large icon indicates selected station.
yellow diamond Stations with recent data
red diamond Stations with no data in last 8 hours
     (24 hours for tsunami stations)


Conditions at MHRN6 as of
(7:48 pm EST on 12/18/2018)
0048 GMT on 12/19/2018:
     

Click on the graph icon in the table below to see a time series plot of the last five days of that observation.

5-day plot - Wind Direction Wind Direction (WDIR): WNW ( 300 deg true )
5-day plot - Wind Speed Wind Speed (WSPD): 11 kts
5-day plot - Wind Gust Wind Gust (GST): 18 kts
5-day plot - Wind Speed at 10 Meters Wind Speed at 10 meters (WSPD10M): 10 kts
5-day plot - Wind Speed at 10 Meters Wind Speed at 20 meters (WSPD20M): 10 kts
5-day plot - Wind Speed, Wind Gust and Atmospheric Pressure Combined plot of Wind Speed, Gust, and Air Pressure
NOS Water Level Observation Network Water Level
Previous observations
5-day plot - Wind Direction 5-day plot - Wind Speed 5-day plot - Wind Gust 5-day plot - Wave Height 5-day plot - Dominant Wave Period 5-day plot - Average Period 5-day plot - Mean Wave Direction 5-day plot - Atmospheric Pressure 5-day plot - Pressure Tendency 5-day plot - Air Temperature 5-day plot - Water Temperature 5-day plot - Dew Point 5-day plot - Salinity 5-day plot - Visibility 5-day plot - Tide (above MLLW)
MM DD TIME
(EST)
WDIR WSPD
kts
GST
kts
WVHT
ft
DPD
sec
APD
sec
MWD PRES
in
PTDY
in
ATMP
°F
WTMP
°F
DEWP
°F
SAL
psu
VIS
nmi
TIDE
ft
1218 7:42 pmWNW 14 17------------
1218 7:36 pmWNW 13 18------------
1218 7:30 pmWNW 14 20------------
1218 7:24 pm NW 16 20------------
1218 7:18 pmWNW 16 22------------
1218 7:12 pmWNW 20 25------------
1218 7:06 pmWNW 16 21------------
1218 7:00 pmWNW 14 19------------
1218 6:54 pm NW 17 19------------
1218 6:48 pm NW 16 20------------
1218 6:42 pm NW 15 18------------
1218 6:36 pmWNW 13 17------------
1218 6:30 pmWNW 14 17------------
1218 6:24 pm NW 13 16------------
1218 6:18 pmWNW 14 16------------
1218 6:12 pmWNW 13 17------------
1218 6:06 pmWNW 15 20------------
1218 6:00 pmWNW 13 17------------
1218 5:54 pmWNW 12 16------------
1218 5:48 pmWNW 11 15------------
1218 5:42 pmWNW 12 14------------
1218 5:36 pmWNW 9 12------------
1218 5:30 pmWNW 9 12------------
1218 5:24 pmWNW 9 10------------
1218 5:18 pmWNW 10 13------------
1218 5:12 pmWNW 12 15------------
1218 5:06 pmWNW 12 16------------
1218 5:00 pmWNW 15 17------------
1218 4:54 pm NW 13 15------------
1218 4:48 pmWNW 12 16------------
1218 4:42 pmWNW 13 17------------
1218 4:36 pm NW 14 16------------
1218 4:30 pm NW 15 18------------
1218 4:24 pm NW 10 16------------
1218 4:18 pmWNW 11 16------------
1218 4:12 pm NW 10 16------------
1218 4:06 pmWNW 15 19------------
1218 4:00 pmWNW 11 20------------
1218 3:54 pmWNW 13 17------------
1218 3:48 pm NW 16 19------------
1218 3:42 pm NW 17 22------------
1218 3:36 pm NW 17 22------------
1218 3:30 pm NW 16 19------------
1218 3:24 pm NW 15 19------------
1218 3:18 pm NW 14 17------------
1218 3:12 pm W 12 21------------
1218 3:06 pmWNW 10 18------------
1218 3:00 pmWNW 16 19------------
1218 2:54 pmWNW 17 19------------
1218 2:48 pm NW 19 21------------
1218 2:42 pm NW 16 20------------
1218 2:36 pm NW 13 16------------
1218 2:30 pmWNW 14 19------------
1218 2:24 pm NW 16 22------------
1218 2:18 pm NW 19 22------------
1218 2:12 pm NW 17 19------------
1218 2:06 pm W 15 19------------
1218 2:00 pmWNW 16 20------------
1218 1:54 pmWNW 15 22------------
1218 1:48 pmWNW 14 20------------
1218 1:42 pmWNW 20 23------------
1218 1:36 pmWNW 18 25------------
1218 1:30 pmWNW 18 22------------
1218 1:24 pmWNW 17 21------------
1218 1:18 pmWNW 14 19------------
1218 1:12 pm NW 17 21------------
1218 1:06 pmWNW 20 24------------
1218 1:00 pmWNW 18 24------------
121812:54 pmWNW 19 25------------
121812:48 pmWNW 17 24------------
121812:42 pmWNW 21 24------------
121812:36 pmWNW 18 25------------
121812:30 pmWNW 22 24------------
121812:24 pm NW 19 25------------
121812:18 pmNNW 21 24------------
121812:12 pm NW 18 22------------
121812:06 pm NW 15 22------------
121812:00 pm NW 16 23------------
121811:54 amWNW 21 23------------
121811:48 amWNW 19 23------------
121811:42 amWNW 16 22------------
121811:36 amWNW 19 22------------
121811:30 amWNW 14 22------------
121811:24 amWNW 16 20------------
121811:18 am NW 20 23------------
121811:12 am NW 13 22------------
121811:06 am NW 18 26------------
121811:00 am NW 22 27------------
121810:54 am NW 21 25------------
121810:48 amNNW 20 25------------
121810:42 am NW 19 25------------
121810:36 am NW 23 27------------
121810:30 am NW 22 29------------
121810:24 am NW 22 28------------
121810:12 am NW 20 27------------
121810:06 am NW 17 22------------
121810:00 am NW 20 23------------
1218 9:54 amWNW 20 24------------
1218 9:48 am NW 16 23------------
1218 9:42 am NW 17 21------------
1218 9:36 am NW 13 21------------
1218 9:30 am NW 19 26------------
1218 9:24 am NW 20 27------------
1218 9:18 amNNW 16 21------------
1218 9:12 amNNW 16 21------------
1218 9:06 am NW 15 24------------
1218 9:00 am NW 22 29------------
1218 8:54 am NW 17 25------------
1218 8:48 am NW 17 26------------
1218 8:42 am NW 19 25------------
1218 8:36 am NW 21 29------------
1218 8:30 am NW 19 24------------
1218 8:24 am NW 17 22------------
1218 8:18 am NW 21 25------------
1218 8:12 am NW 12 20------------
1218 8:06 am NW 14 18------------
1218 8:00 amWNW 15 18------------
1218 7:54 am NW 14 17------------
1218 7:48 am NW 14 20------------
1218 7:42 am NW 14 17------------
1218 7:36 am NW 12 20------------
1218 7:30 am NW 16 19------------
1218 7:24 am NW 20 24------------
1218 7:18 am NW 23 26------------
1218 7:12 am NW 20 26------------
1218 7:06 am NW 20 25------------
1218 7:00 am NW 18 25------------
1218 6:54 am NW 25 29------------
1218 6:48 am NW 18 30------------
1218 6:42 amWNW 23 30------------
1218 6:36 am NW 19 24------------
1218 6:30 amWNW 22 25------------
1218 6:24 amWNW 16 26------------
1218 6:18 am NW 18 29------------
1218 6:12 am NW 25 36------------
1218 6:06 am NW 24 32------------
1218 6:00 amWNW 25 28------------
1218 5:54 am NW 24 31------------
1218 5:48 amWNW 16 24------------
1218 5:42 am NW 16 24------------
1218 5:36 amWNW 14 18------------
1218 5:30 am W 9 13------------
1218 5:24 amWNW 10 15------------
1218 5:18 am NW 15 24------------
1218 5:12 am NW 22 27------------
1218 5:06 amWNW 18 25------------
1218 5:00 am NW 21 29------------
1218 4:54 amWNW 22 27------------
1218 4:48 amWNW 17 20------------
1218 4:42 am NW 21 28------------
1218 4:36 am NW 20 27------------
1218 4:30 amWNW 21 27------------
1218 4:24 am NW 23 28------------
1218 4:18 am NW 17 26------------
1218 4:12 am NW 21 26------------
1218 4:06 amWNW 21 27------------
1218 4:00 amWNW 15 21------------
1218 3:54 am NW 18 33------------
1218 3:48 amWNW 21 29------------
1218 3:42 amWNW 17 20------------
1218 3:36 amWNW 15 19------------
1218 3:30 amWNW 16 22------------
1218 3:24 amWNW 13 19------------
1218 3:18 amWNW 15 24------------
1218 3:12 amWNW 22 26------------
1218 3:06 amWNW 15 27------------
1218 3:00 amWNW 13 22------------
1218 2:54 amWNW 22 28------------
1218 2:48 amWNW 22 26------------
1218 2:42 amWNW 18 25------------
1218 2:36 amWNW 23 28------------
1218 2:30 amWNW 28 33------------
1218 2:24 amWNW 23 31------------
1218 2:18 amWNW 25 36------------
1218 2:12 amWNW 26 38------------
1218 2:06 amWNW 27 38------------
1218 2:00 amWNW 31 39------------
1218 1:54 amWNW 30 41------------
1218 1:48 am NW 32 40------------
1218 1:42 am NW 23 28------------
1218 1:36 am NW 25 29------------
1218 1:30 am NW 26 32------------
1218 1:24 am NW 24 28------------
1218 1:18 amWNW 22 28------------
1218 1:12 amWNW 23 28------------
1218 1:06 amWNW 20 29------------
1218 1:00 amWNW 18 28------------
121812:54 amWNW 19 33------------
121812:48 am NW 26 33------------
121812:42 amWNW 20 26------------
121812:36 amWNW 21 26------------
121812:30 amWNW 17 22------------
121812:24 amWNW 20 27------------
121812:18 am NW 21 27------------
121812:12 amWNW 23 28------------
121812:06 amWNW 22 32------------
121812:00 amWNW 18 26------------
121711:54 pmWNW 15 24------------
121711:48 pmWNW 17 24------------
121711:42 pmWNW 20 29------------
121711:36 pmWNW 26 34------------
121711:30 pmWNW 17 22------------
121711:24 pmWNW 25 28------------
121711:18 pmWNW 26 33------------
121711:12 pmWNW 25 34------------
121711:06 pmWNW 24 32------------
121711:00 pmWNW 25 34------------
121710:54 pmWNW 26 39------------
121710:48 pm W 18 33------------
121710:42 pmWNW 28 33------------
121710:36 pmWNW 21 28------------
121710:30 pmWNW 22 28------------
121710:24 pmWNW 20 28------------
121710:18 pmWNW 22 31------------
121710:12 pmWNW 24 29------------
121710:06 pmWNW 21 29------------
121710:00 pm W 25 33------------
1217 9:54 pm W 18 25------------
1217 9:48 pmWNW 14 20------------
1217 9:42 pm W 19 26------------
1217 9:36 pmWNW 18 24------------
1217 9:30 pm W 17 25------------
1217 9:24 pm W 16 23------------
1217 9:18 pmWNW 19 22------------
1217 9:12 pm W 17 21------------
1217 9:06 pm W 15 19------------
1217 9:00 pmWNW 13 20------------
1217 8:54 pmWNW 18 23------------
1217 8:48 pmWNW 11 17------------
1217 8:42 pmWNW 12 24------------
1217 8:36 pm W 18 22------------
1217 8:30 pmWNW 14 19------------
1217 8:24 pmWNW 14 18------------
1217 8:18 pm NW 17 20------------
1217 8:12 pmWNW 18 23------------
1217 8:06 pmWNW 15 20------------
1217 8:00 pm NW 13 23------------
1217 7:54 pmWNW 14 24------------

Description of Measurements

Links which are specific to this station are listed below:

Real Time Data in tabular form for the last forty-five days.

Historical Data & Climatic Summaries for quality controlled data for the current month, previous months, and previous years.